Terminal Aerodrome Forecast
Issued by NWS Duluth, MN

Home | Current Version | Previous Version | Text Only | Print | Product List | Glossary On
Versions: 1 2 3 4 5 6 7 8 9 10 11 12 13 14 15 16
000
FTUS43 KDLH 210500
TAFINL
TAF
KINL 210537Z 2106/2206 13006KT P6SM SCT140
     FM210700 31010G20KT P6SM BKN060
      TEMPO 2109/2111 5SM -SHRA
     FM211200 33016G23KT P6SM BKN040=

USA.gov is the U.S. government's official web portal to all federal, state and local government web resources and services.